createdAt,value
2022-11-24T00:05:08.801Z,99413
2022-11-24T00:19:10.081Z,99425
2022-11-24T00:33:12.435Z,99431
2022-11-24T00:47:14.775Z,99444
2022-11-24T01:01:14.659Z,99464
2022-11-24T01:15:16.484Z,99464
2022-11-24T01:29:18.730Z,99465
2022-11-24T01:43:17.800Z,99479
2022-11-24T01:57:18.943Z,99491
2022-11-24T02:11:19.167Z,99508
2022-11-24T02:25:20.615Z,99519
2022-11-24T02:39:23.699Z,99526
2022-11-24T02:53:25.584Z,99538
2022-11-24T03:07:24.307Z,99548
2022-11-24T03:21:26.183Z,99572
2022-11-24T03:35:29.122Z,99573
2022-11-24T03:49:30.101Z,99597
2022-11-24T04:03:30.487Z,99620
2022-11-24T04:17:30.615Z,99649
2022-11-24T04:31:34.361Z,99659
2022-11-24T04:45:33.130Z,99666
2022-11-24T04:59:34.249Z,99691
2022-11-24T05:13:33.759Z,99722
2022-11-24T05:27:34.746Z,99748
2022-11-24T05:41:36.661Z,99765
2022-11-24T05:55:37.172Z,99779
2022-11-24T06:09:41.739Z,99805
2022-11-24T06:23:44.584Z,99819
2022-11-24T06:37:47.421Z,99835
2022-11-24T06:51:53.835Z,99870
2022-11-24T07:05:55.408Z,99898
2022-11-24T07:19:54.675Z,99922
2022-11-24T07:33:55.592Z,99957
2022-11-24T07:47:54.804Z,99977
2022-11-24T08:01:57.100Z,99997
2022-11-24T08:15:59.030Z,100017
2022-11-24T08:30:00.200Z,100044
2022-11-24T08:43:59.552Z,100056
2022-11-24T08:58:02.616Z,100068
2022-11-24T09:12:09.928Z,100085
2022-11-24T09:26:09.820Z,100096
2022-11-24T09:40:13.086Z,100114
2022-11-24T09:54:23.409Z,100105
2022-11-24T10:08:22.660Z,100124
2022-11-24T10:22:24.983Z,100137
2022-11-24T10:36:26.600Z,100141
2022-11-24T10:50:31.842Z,100146
2022-11-24T11:04:36.030Z,100147
2022-11-24T11:18:42.467Z,100118
2022-11-24T11:46:57.609Z,100102
2022-11-24T12:00:52.693Z,100112
2022-11-24T12:14:53.181Z,100120
2022-11-24T12:28:55.754Z,100113
2022-11-24T12:42:58.079Z,100103
2022-11-24T12:57:09.950Z,100068
2022-11-24T13:11:08.077Z,100076
2022-11-24T13:25:11.777Z,100085
2022-11-24T13:39:10.783Z,100086
2022-11-24T13:53:12.405Z,100107
2022-11-24T14:07:12.941Z,100124
2022-11-24T14:21:14.929Z,100116
2022-11-24T14:35:17.916Z,100096
2022-11-24T14:49:20.781Z,100107
2022-11-24T15:03:21.462Z,100092
2022-11-24T15:17:21.849Z,100094
2022-11-24T15:31:23.954Z,100089
2022-11-24T15:45:26.276Z,100086
2022-11-24T15:59:28.081Z,100101
2022-11-24T16:13:29.983Z,100098
2022-11-24T16:27:29.507Z,100099
2022-11-24T16:41:31.484Z,100111
2022-11-24T16:55:31.055Z,100109
2022-11-24T17:09:34.860Z,100112
2022-11-24T17:23:34.093Z,100119
2022-11-24T17:37:37.323Z,100091
2022-11-24T17:51:40.386Z,100077
2022-11-24T18:05:41.127Z,100069
2022-11-24T18:19:43.988Z,100062
2022-11-24T18:33:47.028Z,100062
2022-11-24T18:47:49.632Z,100055
2022-11-24T19:01:51.565Z,100067
2022-11-24T19:15:55.496Z,100075
2022-11-24T19:29:56.185Z,100064
2022-11-24T19:43:58.822Z,100040
2022-11-24T19:58:01.363Z,100039
2022-11-24T20:12:03.692Z,100020
2022-11-24T20:26:07.358Z,100017
2022-11-24T20:40:09.128Z,100009
2022-11-24T20:54:13.933Z,99991
2022-11-24T21:08:16.593Z,100001
2022-11-24T21:22:18.797Z,99990
2022-11-24T21:36:19.146Z,99978
2022-11-24T21:50:22.181Z,99971
2022-11-24T22:04:24.058Z,99956
2022-11-24T22:18:26.555Z,99948
2022-11-24T22:32:29.205Z,99957
2022-11-24T22:46:33.392Z,99947
2022-11-24T23:00:37.640Z,99946
2022-11-24T23:14:42.582Z,99938
2022-11-24T23:28:45.319Z,99922
2022-11-24T23:42:46.414Z,99930
2022-11-24T23:56:49.086Z,99925
